createdAt,value
2022-12-26T00:00:39.267Z,10.00
2022-12-26T00:05:58.682Z,10.40
2022-12-26T00:10:58.959Z,11.60
2022-12-26T00:15:57.942Z,10.80
2022-12-26T00:20:56.532Z,8.70
2022-12-26T00:25:57.048Z,9.10
2022-12-26T00:30:56.151Z,9.20
2022-12-26T00:35:55.797Z,9.00
2022-12-26T00:40:55.088Z,9.80
2022-12-26T00:45:54.835Z,9.20
2022-12-26T00:50:55.071Z,9.50
2022-12-26T00:55:55.290Z,9.90
2022-12-26T01:00:54.999Z,9.60
2022-12-26T01:05:56.616Z,10.20
2022-12-26T01:10:56.431Z,9.60
2022-12-26T01:15:59.070Z,9.70
2022-12-26T01:21:06.702Z,9.50
2022-12-26T01:26:15.130Z,9.80
2022-12-26T01:31:15.650Z,9.60
2022-12-26T01:36:15.626Z,10.40
2022-12-26T01:41:20.552Z,10.90
2022-12-26T01:46:24.329Z,10.00
2022-12-26T01:51:29.611Z,10.80
2022-12-26T01:56:36.453Z,10.90
2022-12-26T02:01:39.892Z,10.90
2022-12-26T02:06:41.547Z,10.30
2022-12-26T02:11:47.168Z,12.30
2022-12-26T02:16:47.048Z,11.70
2022-12-26T02:22:32.016Z,11.30
2022-12-26T02:28:02.963Z,12.40
2022-12-26T02:33:53.352Z,12.20
2022-12-26T02:39:44.529Z,13.20
2022-12-26T02:44:59.053Z,12.10
2022-12-26T02:50:30.512Z,12.70
2022-12-26T02:55:54.726Z,12.70
2022-12-26T03:01:24.389Z,14.00
2022-12-26T03:06:56.149Z,10.60
2022-12-26T03:12:22.021Z,11.20
2022-12-26T03:17:31.649Z,12.20
2022-12-26T03:22:38.138Z,13.00
2022-12-26T03:27:40.385Z,12.30
2022-12-26T03:32:48.503Z,11.40
2022-12-26T03:37:58.061Z,12.80
2022-12-26T03:43:24.721Z,12.20
2022-12-26T03:48:49.579Z,10.30
2022-12-26T03:54:17.517Z,10.90
2022-12-26T03:59:39.889Z,10.80
2022-12-26T04:05:02.256Z,12.00
2022-12-26T04:10:23.387Z,10.40
2022-12-26T04:15:51.193Z,10.70
2022-12-26T04:21:02.700Z,10.50
2022-12-26T04:26:29.836Z,10.10
2022-12-26T04:31:53.220Z,9.90
2022-12-26T04:37:18.232Z,10.00
2022-12-26T04:42:39.215Z,9.80
2022-12-26T04:47:59.548Z,8.70
2022-12-26T04:53:02.215Z,9.90
2022-12-26T04:58:02.773Z,10.00
2022-12-26T05:03:20.259Z,10.50
2022-12-26T05:08:51.771Z,9.60
2022-12-26T05:13:55.464Z,10.00
2022-12-26T05:19:12.565Z,8.70
2022-12-26T05:24:31.626Z,8.50
2022-12-26T05:29:32.105Z,9.10
2022-12-26T05:34:31.917Z,7.80
2022-12-26T05:39:31.683Z,8.90
2022-12-26T05:44:31.668Z,8.60
2022-12-26T05:49:33.649Z,7.50
2022-12-26T05:54:32.802Z,7.30
2022-12-26T05:59:32.756Z,7.60
2022-12-26T06:04:31.320Z,8.40
2022-12-26T06:09:31.241Z,7.80
2022-12-26T06:14:30.525Z,8.00
2022-12-26T06:19:32.851Z,7.60
2022-12-26T06:24:34.900Z,7.70
2022-12-26T06:29:35.182Z,4.50
2022-12-26T06:34:35.277Z,5.50
2022-12-26T06:39:35.381Z,6.90
2022-12-26T06:44:36.103Z,7.40
2022-12-26T06:49:35.560Z,5.70
2022-12-26T06:54:35.850Z,6.20
2022-12-26T06:59:36.182Z,6.50
2022-12-26T07:04:36.000Z,6.10
2022-12-26T07:09:35.106Z,6.60
2022-12-26T07:14:34.408Z,6.60
2022-12-26T07:19:35.384Z,6.90
2022-12-26T07:24:35.839Z,7.20
2022-12-26T07:29:36.090Z,6.40
2022-12-26T07:34:35.661Z,4.90
2022-12-26T07:39:35.812Z,5.30
2022-12-26T07:44:38.881Z,5.00
2022-12-26T07:49:38.236Z,5.90
2022-12-26T07:54:38.565Z,6.00
2022-12-26T07:59:38.967Z,4.50
2022-12-26T08:04:41.815Z,6.50
2022-12-26T08:09:43.137Z,5.50
2022-12-26T08:14:43.635Z,5.60
2022-12-26T08:19:44.856Z,6.20
2022-12-26T08:24:45.388Z,5.10
2022-12-26T08:29:45.342Z,6.50
2022-12-26T08:34:44.746Z,6.10
2022-12-26T08:39:44.461Z,5.40
2022-12-26T08:44:43.951Z,5.30
2022-12-26T08:49:44.842Z,4.90
2022-12-26T08:54:44.241Z,5.60
2022-12-26T08:59:44.525Z,5.90
2022-12-26T09:04:43.411Z,6.50
2022-12-26T09:09:44.284Z,4.90
2022-12-26T09:14:44.016Z,5.80
2022-12-26T09:19:44.786Z,7.40
2022-12-26T09:24:44.915Z,7.00
2022-12-26T09:29:43.940Z,7.60
2022-12-26T09:34:44.162Z,7.30
2022-12-26T09:39:43.616Z,8.90
2022-12-26T09:44:55.149Z,5.70
2022-12-26T09:50:00.174Z,4.80
2022-12-26T09:55:08.880Z,7.60
2022-12-26T10:00:17.921Z,6.10
2022-12-26T10:05:21.296Z,7.10
2022-12-26T10:10:31.362Z,6.90
2022-12-26T10:15:42.752Z,7.30
2022-12-26T10:21:01.328Z,7.80
2022-12-26T10:26:10.593Z,7.40
2022-12-26T10:31:28.327Z,7.30
2022-12-26T10:36:35.370Z,7.60
2022-12-26T10:41:43.830Z,7.70
2022-12-26T10:47:24.422Z,8.00
2022-12-26T10:52:33.635Z,7.00
2022-12-26T10:57:41.710Z,8.40
2022-12-26T11:02:41.332Z,8.20
2022-12-26T11:07:51.980Z,8.10
2022-12-26T11:12:56.767Z,8.30
2022-12-26T11:18:09.804Z,8.10
2022-12-26T11:23:31.876Z,9.00
2022-12-26T11:28:38.711Z,8.70
2022-12-26T11:33:47.053Z,8.30
2022-12-26T11:38:58.291Z,9.00
2022-12-26T11:44:04.734Z,9.00
2022-12-26T11:49:06.374Z,7.60
2022-12-26T11:54:24.343Z,8.90
2022-12-26T11:59:31.397Z,7.60
2022-12-26T12:04:31.013Z,7.70
2022-12-26T12:09:45.622Z,7.90
2022-12-26T12:15:01.876Z,9.20
2022-12-26T12:20:30.826Z,9.90
2022-12-26T12:25:55.729Z,7.00
2022-12-26T12:31:07.450Z,6.60
2022-12-26T12:36:18.439Z,6.90
2022-12-26T12:41:41.187Z,6.70
2022-12-26T12:46:55.624Z,6.00
2022-12-26T12:52:05.164Z,5.50
2022-12-26T12:57:19.055Z,6.30
2022-12-26T13:02:26.932Z,5.50
2022-12-26T13:07:35.803Z,6.10
2022-12-26T13:12:41.581Z,6.20
2022-12-26T13:17:59.848Z,5.80
2022-12-26T13:23:25.889Z,5.10
2022-12-26T13:28:34.640Z,6.80
2022-12-26T13:33:35.620Z,6.40
2022-12-26T13:39:23.144Z,5.90
2022-12-26T13:44:33.050Z,5.00
2022-12-26T13:49:38.911Z,4.90
2022-12-26T13:54:41.051Z,6.10
2022-12-26T13:59:46.823Z,6.00
2022-12-26T14:05:03.527Z,5.40
2022-12-26T14:10:18.168Z,5.40
2022-12-26T14:15:33.137Z,4.80
2022-12-26T14:20:46.343Z,5.70
2022-12-26T14:26:00.863Z,5.10
2022-12-26T14:31:16.325Z,5.50
2022-12-26T14:36:35.675Z,5.10
2022-12-26T14:42:44.516Z,5.20
2022-12-26T14:47:49.100Z,5.70
2022-12-26T14:52:49.995Z,4.60
2022-12-26T14:57:53.271Z,5.00
2022-12-26T15:03:27.640Z,5.30
2022-12-26T15:08:55.673Z,5.20
2022-12-26T15:14:49.985Z,5.00
2022-12-26T15:20:45.391Z,5.30
2022-12-26T15:26:12.423Z,6.00
2022-12-26T15:31:46.626Z,5.40
2022-12-26T15:36:55.894Z,5.70
2022-12-26T15:42:11.988Z,5.60
2022-12-26T15:47:26.983Z,5.80
2022-12-26T15:52:43.010Z,5.60
2022-12-26T15:57:56.265Z,5.80
2022-12-26T16:03:21.893Z,5.60
2022-12-26T16:08:54.348Z,5.50
2022-12-26T16:14:03.847Z,4.90
2022-12-26T16:19:18.148Z,4.90
2022-12-26T16:24:21.002Z,4.60
2022-12-26T16:29:23.386Z,4.80
2022-12-26T16:34:26.823Z,5.90
2022-12-26T16:39:28.519Z,5.70
2022-12-26T16:44:37.371Z,5.50
2022-12-26T16:49:38.268Z,5.40
2022-12-26T16:54:43.495Z,5.80
2022-12-26T17:00:18.043Z,6.50
2022-12-26T17:05:26.760Z,6.60
2022-12-26T17:10:47.638Z,6.20
2022-12-26T17:15:57.588Z,6.30
2022-12-26T17:20:57.728Z,6.30
2022-12-26T17:26:24.169Z,6.80
2022-12-26T17:31:35.605Z,4.50
2022-12-26T17:41:59.811Z,4.90
2022-12-26T17:46:59.303Z,4.60
2022-12-26T17:52:01.945Z,4.90
2022-12-26T17:57:02.452Z,3.60
2022-12-26T18:02:03.290Z,5.40
2022-12-26T18:07:03.159Z,4.10
2022-12-26T18:12:02.277Z,4.00
2022-12-26T18:17:08.371Z,5.60
2022-12-26T18:22:12.128Z,5.40
2022-12-26T18:27:18.934Z,6.70
2022-12-26T18:32:28.340Z,6.60
2022-12-26T18:37:31.511Z,5.70
2022-12-26T18:42:31.492Z,7.00
2022-12-26T18:47:30.908Z,6.70
2022-12-26T18:52:30.682Z,7.30
2022-12-26T18:57:29.682Z,7.20
2022-12-26T19:02:28.985Z,7.70
2022-12-26T19:07:28.823Z,6.40
2022-12-26T19:12:29.312Z,6.90
2022-12-26T19:17:29.398Z,6.70
2022-12-26T19:22:30.570Z,7.50
2022-12-26T19:27:31.707Z,5.80
2022-12-26T19:32:31.254Z,5.10
2022-12-26T19:37:31.020Z,6.00
2022-12-26T19:42:30.417Z,5.40
2022-12-26T19:47:35.228Z,5.90
2022-12-26T19:52:36.624Z,6.30
2022-12-26T19:57:43.722Z,5.80
2022-12-26T20:02:44.286Z,5.50
2022-12-26T20:07:44.935Z,5.60
2022-12-26T20:12:45.784Z,5.10
2022-12-26T20:17:46.501Z,6.00
2022-12-26T20:22:53.125Z,5.00
2022-12-26T20:27:54.069Z,5.50
2022-12-26T20:32:57.435Z,6.60
2022-12-26T20:37:57.504Z,6.20
2022-12-26T20:42:57.039Z,7.20
2022-12-26T20:47:56.553Z,6.60
2022-12-26T20:52:56.072Z,6.90
2022-12-26T20:57:57.405Z,6.70
2022-12-26T21:02:56.585Z,7.10
2022-12-26T21:08:08.087Z,5.40
2022-12-26T21:13:08.572Z,6.70
2022-12-26T21:18:08.725Z,6.80
2022-12-26T21:23:08.167Z,4.90
2022-12-26T21:28:08.167Z,5.60
2022-12-26T21:33:07.671Z,4.90
2022-12-26T21:38:07.011Z,5.60
2022-12-26T21:43:06.516Z,5.90
2022-12-26T21:48:06.396Z,6.00
2022-12-26T21:53:06.368Z,6.50
2022-12-26T21:58:07.692Z,6.80
2022-12-26T22:03:25.832Z,7.80
2022-12-26T22:08:25.673Z,5.60
2022-12-26T22:13:26.954Z,6.80
2022-12-26T22:18:27.475Z,5.00
2022-12-26T22:23:27.065Z,4.50
2022-12-26T22:28:29.630Z,5.40
2022-12-26T22:33:30.109Z,5.20
2022-12-26T22:38:31.416Z,5.10
2022-12-26T22:43:32.346Z,5.70
2022-12-26T22:48:31.545Z,6.40
2022-12-26T22:53:32.458Z,5.20
2022-12-26T22:58:33.971Z,4.40
2022-12-26T23:03:33.536Z,4.40
2022-12-26T23:08:34.451Z,4.80
2022-12-26T23:13:35.959Z,5.10
2022-12-26T23:19:03.211Z,6.30
2022-12-26T23:24:02.451Z,6.30
2022-12-26T23:29:19.723Z,5.60
2022-12-26T23:34:19.615Z,5.80
2022-12-26T23:39:19.325Z,5.30
2022-12-26T23:44:19.135Z,6.00
2022-12-26T23:49:19.764Z,5.50
2022-12-26T23:54:19.318Z,4.50
2022-12-26T23:59:18.280Z,5.60
